Latest Weather Observations for Barrow Island

IDW60801

Issued at 8:35 pm WST Wednesday 23 April 2014 (issued every 30 minutes, with the page automatically refreshed every 10 minutes)

About weather observations | Map of weather stations | Latest weather observations for WA | Other Formats
Station Details ID: 005094 Name: BARROW ISLAND AIRPORT Lat: -20.88 Lon: 115.41 Height: 6.4 m
Data from the previous 72 hours. | See also: Recent months at Barrow Island
Date/Time
WST
Temp
°C
App
Temp
°C
Dew
Point
Rel
Hum
%
Delta-T
°C
Wind Press
QNH
hPa
Press
MSL
hPa
Rain
since 9 am
mm
Dir
 
Spd
km/h
Gust
km/h
Spd
kts
Gust
kts
23/08:30pm 25.8 28.0 21.2 76 3.0 WSW 11 13 6 7 1011.7 - 0.0
23/08:00pm 26.2 28.2 21.6 76 3.1 WSW 13 17 7 9 1011.7 - 0.0
23/07:30pm 26.7 28.3 21.5 73 3.5 WSW 15 17 8 9 1011.5 - 0.0
23/07:00pm 27.1 28.6 21.2 70 3.9 WSW 15 20 8 11 1011.3 - 0.0
23/06:30pm 27.3 27.6 20.4 66 4.5 WSW 19 22 10 12 1011.1 - 0.0
23/06:00pm 27.7 28.0 20.5 65 4.7 WSW 19 24 10 13 1010.7 1010.7 0.0
23/05:30pm 28.2 27.5 19.4 59 5.7 SW 22 26 12 14 1010.4 - 0.0
23/05:00pm 29.4 28.3 19.4 55 6.5 WSW 24 28 13 15 1010.2 - 0.0
23/04:30pm 29.9 27.7 17.0 45 8.1 WSW 24 30 13 16 1010.1 - 0.0
23/04:00pm 30.5 28.4 17.2 44 8.4 WSW 24 28 13 15 1010.1 - 0.0
23/03:30pm 30.8 29.0 16.0 40 9.2 WSW 20 26 11 14 1010.0 - 0.0
23/03:00pm 30.9 29.2 15.7 39 9.4 SW 19 22 10 12 1009.9 1009.9 0.0
23/02:30pm 30.6 29.1 16.2 41 9.0 SSW 19 20 10 11 1010.1 - 0.0
23/02:00pm 30.5 30.7 18.6 49 7.7 SSW 15 20 8 11 1010.3 - 0.0
23/01:30pm 30.3 30.4 18.4 49 7.7 SSW 15 17 8 9 1010.7 - 0.0
23/01:00pm 29.8 29.7 17.9 48 7.6 SSW 15 19 8 10 1011.0 - 0.0
23/12:30pm 29.9 29.6 17.4 47 7.9 SSW 15 17 8 9 1011.4 - 0.0
23/12:00pm 30.0 31.0 19.4 53 6.9 SSW 13 17 7 9 1011.8 1011.8 0.0
23/11:30am 29.6 30.4 19.0 53 6.9 SSW 13 17 7 9 1012.1 - 0.0
23/11:00am 29.2 29.8 19.5 56 6.3 S 15 17 8 9 1012.4 - 0.0
23/10:30am 29.4 30.0 19.4 55 6.5 S 15 17 8 9 1012.8 - 0.0
23/10:00am 29.0 29.2 19.3 55 6.3 S 17 19 9 10 1013.0 - 0.0
23/09:30am 28.8 29.4 19.4 56 6.1 S 15 17 8 9 1012.9 - 0.0
23/09:00am 28.2 28.6 19.1 57 5.9 S 15 19 8 10 1012.9 1012.9 0.0
23/08:30am 27.7 28.0 18.7 58 5.8 S 15 17 8 9 1012.8 - 0.0
23/08:00am 27.2 27.2 19.0 61 5.3 S 17 20 9 11 1012.7 - 0.0
23/07:30am 26.8 26.8 18.9 62 5.1 S 17 19 9 10 1012.5 - 0.0
23/07:00am 26.2 25.5 18.3 61 5.0 S 19 22 10 12 1012.1 - 0.0
23/06:30am 26.1 25.1 18.8 64 4.7 S 22 28 12 15 1011.9 - 0.0
23/06:00am 26.0 25.0 19.6 68 4.1 S 24 28 13 15 1011.9 1011.9 0.0
23/05:30am 26.0 25.4 21.2 75 3.2 S 26 32 14 17 1011.6 - 0.0
23/05:00am 26.0 25.8 21.2 75 3.2 SSW 24 28 13 15 1011.4 - 0.0
23/04:30am 25.9 26.0 21.8 78 2.7 SSW 24 28 13 15 1011.5 - 0.0
23/04:00am 26.1 26.5 22.4 80 2.5 S 24 28 13 15 1011.5 - 0.0
23/03:30am 26.5 26.8 23.0 81 2.4 SSW 26 32 14 17 1011.7 - 0.0
23/03:00am 26.7 27.3 22.8 79 2.6 SW 24 28 13 15 1011.7 1011.7 0.0
23/02:30am 25.8 27.8 22.3 81 2.3 SW 15 20 8 11 1011.7 - 0.0
23/02:00am 25.1 27.0 21.4 80 2.4 SW 13 15 7 8 1011.9 - 0.0
23/01:30am 25.0 26.3 20.9 78 2.7 WSW 15 17 8 9 1012.1 - 0.0
23/01:00am 25.1 26.7 20.8 77 2.8 WSW 13 15 7 8 1012.5 - 0.0
23/12:30am 25.4 27.1 20.9 76 3.0 WSW 13 17 7 9 1012.7 - 0.0
23/12:00am 24.5 25.6 20.4 78 2.7 WSW 15 17 8 9 1012.9 1012.9 0.0
 
Date/Time
WST
Temp
°C
App
Temp
°C
Dew
Point
Rel
Hum
%
Delta-T
°C
Wind Press
QNH
hPa
Press
MSL
hPa
Rain
since 9 am
mm
Dir
 
Spd
km/h
Gust
km/h
Spd
kts
Gust
kts
22/11:30pm 24.1 23.9 19.8 77 2.8 W 20 20 11 11 1012.9 - 0.0
22/11:00pm 24.2 24.3 19.9 77 2.8 W 19 20 10 11 1012.8 - 0.0
22/10:30pm 24.2 24.5 19.5 75 3.0 W 17 19 9 10 1012.9 - 0.0
22/10:00pm 24.6 24.8 19.4 73 3.3 W 17 17 9 9 1013.0 - 0.0
22/09:30pm 24.8 24.9 19.2 71 3.6 W 17 17 9 9 1013.4 - 0.0
22/09:00pm 25.2 25.4 19.3 70 3.8 WNW 17 17 9 9 1013.3 1013.3 0.0
22/08:30pm 25.1 25.1 19.0 69 3.9 W 17 17 9 9 1013.2 - 0.0
22/08:00pm 25.2 25.6 18.9 68 4.0 W 15 17 8 9 1012.9 - 0.0
22/07:30pm 25.6 25.5 18.8 66 4.3 W 17 19 9 10 1012.5 - 0.0
22/07:00pm 26.4 26.9 19.3 65 4.6 W 15 17 8 9 1012.1 - 0.0
22/06:30pm 26.9 27.7 19.0 62 5.1 W 13 15 7 8 1011.9 - 0.0
22/06:00pm 28.2 28.8 18.6 56 6.2 WSW 13 15 7 8 1011.6 1011.6 0.0
22/05:30pm 29.3 29.6 17.8 50 7.3 WSW 13 17 7 9 1011.3 - 0.0
22/05:00pm 30.3 29.8 17.0 44 8.4 WSW 15 17 8 9 1011.1 - 0.0
22/04:30pm 31.5 30.8 15.5 38 9.9 SW 13 17 7 9 1011.1 - 0.0
22/04:00pm 30.9 31.4 19.3 50 7.6 SSW 15 19 8 10 1011.1 - 0.0
22/03:30pm 30.9 30.6 18.3 47 8.1 SSW 17 19 9 10 1011.1 - 0.0
22/03:00pm 30.7 30.7 19.7 52 7.2 SSW 19 20 10 11 1011.2 1011.2 0.0
22/02:30pm 30.6 30.5 19.6 51 7.2 SSW 19 20 10 11 1011.3 - 0.0
22/02:00pm 30.3 31.0 20.5 55 6.5 SSW 17 20 9 11 1011.3 - 0.0
22/01:30pm 29.9 30.4 19.3 53 6.9 S 15 17 8 9 1011.5 - 0.0
22/01:00pm 29.8 30.3 18.3 50 7.4 S 13 15 7 8 1011.7 - 0.0
22/12:30pm 30.2 30.8 18.6 49 7.5 S 13 15 7 8 1012.1 - 0.0
22/12:00pm 30.1 30.3 18.5 49 7.5 S 15 17 8 9 1012.3 1012.3 0.0
22/11:30am 29.5 29.5 18.9 53 6.9 S 17 19 9 10 1012.7 - 0.0
22/11:00am 29.2 29.4 18.6 52 6.8 S 15 17 8 9 1013.0 - 0.0
22/10:30am 29.0 29.5 19.3 55 6.3 S 15 17 8 9 1013.3 - 0.0
22/10:00am 28.6 28.6 19.0 56 6.2 S 17 19 9 10 1013.3 - 0.0
22/09:30am 28.0 27.7 19.2 58 5.7 S 19 20 10 11 1013.1 - 0.0
22/09:00am 28.0 28.1 19.2 58 5.7 S 17 20 9 11 1013.0 1013.0 0.0
22/08:30am 27.3 26.9 18.9 60 5.4 S 19 20 10 11 1013.0 - 0.0
22/08:00am 26.9 26.4 19.0 62 5.1 S 20 24 11 13 1012.8 - 0.0
22/07:30am 26.5 26.2 19.6 66 4.5 S 20 22 11 12 1012.5 - 0.0
22/07:00am 26.2 26.1 19.6 67 4.3 SSW 19 24 10 13 1012.2 - 0.0
22/06:30am 26.1 26.0 19.5 67 4.3 SSW 19 22 10 12 1012.0 - 0.0
22/06:00am 26.3 25.7 19.7 67 4.3 SSW 22 26 12 14 1012.0 1012.0 0.0
22/05:30am 26.4 25.9 20.0 68 4.2 SSW 22 24 12 13 1012.0 - 0.0
22/05:00am 26.6 25.9 20.2 68 4.2 SSW 24 28 13 15 1012.0 - 0.0
22/04:30am 26.4 26.6 20.5 70 3.9 SW 20 24 11 13 1011.9 - 0.0
22/04:00am 26.7 26.8 21.2 72 3.6 SSW 22 26 12 14 1011.9 - 0.0
22/03:30am 26.5 27.5 21.7 75 3.2 SW 19 22 10 12 1012.0 - 0.0
22/03:00am 26.6 27.4 21.4 73 3.5 SW 19 24 10 13 1012.0 1012.0 0.0
22/02:30am 26.7 26.7 21.7 74 3.3 SSW 24 28 13 15 1012.0 - 0.0
22/02:00am 27.1 26.9 22.1 74 3.4 SSW 26 30 14 16 1012.1 - 0.0
22/01:30am 26.8 27.6 21.8 74 3.3 SW 20 26 11 14 1012.4 - 0.0
22/01:00am 26.1 27.1 21.1 74 3.3 WSW 17 20 9 11 1012.7 - 0.0
22/12:30am 26.2 27.2 22.1 78 2.7 WSW 20 24 11 13 1012.9 - 0.0
22/12:00am 25.0 26.3 21.7 82 2.2 W 17 20 9 11 1012.9 1012.9 0.0
 
Date/Time
WST
Temp
°C
App
Temp
°C
Dew
Point
Rel
Hum
%
Delta-T
°C
Wind Press
QNH
hPa
Press
MSL
hPa
Rain
since 9 am
mm
Dir
 
Spd
km/h
Gust
km/h
Spd
kts
Gust
kts
21/11:30pm 25.3 26.5 21.4 79 2.6 W 17 19 9 10 1012.9 - 0.0
21/11:00pm 26.1 27.2 22.0 78 2.7 W 19 20 10 11 1012.9 - 0.0
21/10:30pm 26.0 26.7 21.2 75 3.2 W 19 20 10 11 1013.1 - 0.0
21/10:00pm 26.1 27.3 21.5 76 3.1 W 17 20 9 11 1013.2 - 0.0
21/09:30pm 25.6 26.4 20.6 74 3.3 W 17 19 9 10 1013.0 - 0.0
21/09:00pm 25.9 26.7 20.7 73 3.4 W 17 19 9 10 1012.8 1012.8 0.0
21/08:30pm 26.2 26.9 20.5 71 3.7 W 17 20 9 11 1012.7 - 0.0
21/08:00pm 26.6 27.3 20.4 69 4.1 W 17 20 9 11 1012.5 - 0.0
21/07:30pm 26.8 27.0 20.2 67 4.3 W 19 24 10 13 1012.1 - 0.0
21/07:00pm 27.2 27.3 20.3 66 4.5 W 20 24 11 13 1011.8 - 0.0
21/06:30pm 27.7 27.6 20.0 63 5.0 W 20 26 11 14 1011.7 - 0.0
21/06:00pm 28.4 27.5 19.1 57 6.0 W 22 28 12 15 1011.5 1011.5 0.0
21/05:30pm 29.6 28.1 17.8 49 7.5 W 22 28 12 15 1011.3 - 0.0
21/05:00pm 30.6 29.2 17.0 44 8.6 WSW 20 24 11 13 1011.2 - 0.0
21/04:30pm 31.9 30.9 14.5 34 10.6 WSW 13 17 7 9 1011.0 - 0.0
21/04:00pm 32.1 30.3 15.6 37 10.3 WSW 19 22 10 12 1010.8 - 0.0
21/03:30pm 32.5 31.3 15.1 35 10.8 SW 15 19 8 10 1010.7 - 0.0
21/03:00pm 32.3 30.8 15.3 35 10.5 SW 17 20 9 11 1010.8 1010.8 0.0
21/02:30pm 31.3 30.9 16.1 40 9.5 SSW 13 15 7 8 1010.9 - 0.0
21/02:00pm 30.5 31.4 16.5 43 8.8 SSW 7 9 4 5 1011.1 - 0.0
21/01:30pm 30.7 31.2 17.4 45 8.4 S 11 13 6 7 1011.3 - 0.0
21/01:00pm 30.0 29.6 15.3 41 9.0 S 11 13 6 7 1011.4 - 0.0
21/12:30pm 29.8 29.7 15.9 43 8.6 S 11 13 6 7 1011.6 - 0.0
21/12:00pm 29.4 29.0 15.1 41 8.7 S 11 15 6 8 1011.9 1011.9 0.0
21/11:30am 29.5 28.4 15.2 41 8.8 S 15 17 8 9 1012.1 - 0.0
21/11:00am 29.5 27.7 15.6 43 8.6 S 19 22 10 12 1012.4 - 0.0
21/10:30am 29.1 27.4 16.3 46 8.0 S 20 24 11 13 1012.7 - 0.0
21/10:00am 28.9 26.5 15.4 44 8.3 S 22 26 12 14 1012.7 - 0.0
21/09:30am 28.5 26.2 15.8 46 7.8 S 22 26 12 14 1012.6 - 0.0
21/09:00am 28.2 25.6 16.8 50 7.1 S 26 30 14 16 1012.5 1012.5 0.0
21/08:30am 27.6 24.9 16.6 51 6.8 S 26 30 14 16 1012.5 - 0.0
21/08:00am 27.3 24.6 16.6 52 6.6 S 26 30 14 16 1012.3 - 0.0
21/07:30am 27.0 23.9 15.7 50 6.9 S 26 32 14 17 1012.1 - 0.0
21/07:00am 26.8 23.7 15.5 50 6.9 S 26 30 14 16 1012.0 - 0.0
21/06:30am 26.8 24.4 17.3 56 5.9 S 26 30 14 16 1011.8 - 0.0
21/06:00am 27.1 25.5 18.4 59 5.5 S 24 28 13 15 1011.6 1011.6 0.0
21/05:30am 27.1 26.3 18.1 58 5.7 S 19 22 10 12 1011.2 - 0.0
21/05:00am 27.2 26.2 17.9 56 5.9 S 20 22 11 12 1011.0 - 0.0
21/04:30am 27.5 26.6 18.2 57 5.9 S 20 22 11 12 1011.0 - 0.0
21/04:00am 27.6 27.1 18.6 58 5.8 S 19 22 10 12 1010.9 - 0.0
21/03:30am 27.7 26.5 18.4 57 5.9 SSW 22 28 12 15 1010.8 - 0.0
21/03:00am 27.5 27.3 19.8 63 5.0 SW 20 24 11 13 1010.8 1010.8 0.0
21/02:30am 27.3 27.5 20.6 67 4.4 SW 20 24 11 13 1010.9 - 0.0
21/02:00am 25.8 27.1 21.7 78 2.7 WSW 17 19 9 10 1011.0 - 0.0
21/01:30am 23.7 24.8 20.4 82 2.1 W 15 17 8 9 1011.1 - 0.0
21/01:00am 24.0 25.3 20.9 83 2.0 W 15 17 8 9 1011.2 - 0.0
21/12:30am 25.1 26.7 21.4 80 2.4 W 15 17 8 9 1011.2 - 0.0
21/12:00am 26.0 28.1 22.5 81 2.4 WSW 15 19 8 10 1011.5 1011.5 0.0
 
Date/Time
WST
Temp
°C
App
Temp
°C
Dew
Point
Rel
Hum
%
Delta-T
°C
Wind Press
QNH
hPa
Press
MSL
hPa
Rain
since 9 am
mm
Dir
 
Spd
km/h
Gust
km/h
Spd
kts
Gust
kts
20/11:30pm 25.1 27.0 21.4 80 2.4 WSW 13 15 7 8 1011.6 - 0.0
20/11:00pm 24.5 25.1 20.2 77 2.8 W 17 17 9 9 1011.6 - 0.0
20/10:30pm 25.0 26.2 20.7 77 2.8 W 15 17 8 9 1011.6 - 0.0
20/10:00pm 25.4 26.9 20.6 75 3.1 W 13 15 7 8 1011.5 - 0.0
20/09:30pm 25.9 27.2 20.9 74 3.3 W 15 15 8 8 1011.6 - 0.0
20/09:00pm 26.0 27.4 20.3 71 3.7 W 13 15 7 8 1011.4 1011.4 0.0

Other Formats:

Comma delimited format used in spreadsheet applications
http://www.bom.gov.au/fwo/IDW60801/IDW60801.95304.axf

JavaScript Object Notation format (JSON) in row-major order
http://www.bom.gov.au/fwo/IDW60801/IDW60801.95304.json